Latest Weather Observations for Winton

IDQ60801

Issued at 3:35 pm EST Thursday 24 April 2014 (issued every 30 minutes, with the page automatically refreshed every 10 minutes)

About weather observations | Map of weather stations | Latest weather observations for QLD | Other Formats
Station Details ID: 037039 Name: WINTON AIRPORT Lat: -22.36 Lon: 143.08 Height: 192.2 m
Data from the previous 72 hours. | See also: Recent months at Winton
Date/Time
EST
Temp
°C
App
Temp
°C
Dew
Point
Rel
Hum
%
Delta-T
°C
Wind Press
QNH
hPa
Press
MSL
hPa
Rain
since 9 am
mm
Dir
 
Spd
km/h
Gust
km/h
Spd
kts
Gust
kts
24/03:30pm 33.2 29.0 9.9 24 13.5 E 22 32 12 17 1010.9 - 0.0
24/03:00pm 33.0 29.4 10.4 25 13.1 ESE 20 30 11 16 1011.0 1010.0 0.0
24/02:30pm 33.8 30.5 12.7 27 12.7 ESE 22 37 12 20 1011.3 - 0.0
24/02:00pm 32.8 28.6 12.4 29 12.2 E 26 35 14 19 1011.6 1010.6 0.0
24/01:30pm 33.1 30.1 13.7 31 11.9 E 22 32 12 17 1012.1 - 0.0
24/01:00pm 31.1 28.6 13.4 34 10.7 E 19 32 10 17 1012.7 1011.7 0.0
24/12:30pm 30.8 28.6 14.8 37 9.9 ESE 20 32 11 17 1013.3 - 0.0
24/12:00pm 30.3 28.5 15.6 41 9.1 ESE 19 28 10 15 1014.0 1013.0 0.0
24/11:30am 29.4 27.7 16.2 44 8.3 ESE 20 30 11 16 1014.5 - 0.0
24/11:00am 28.4 27.6 16.0 47 7.7 ESE 15 26 8 14 1014.8 1013.8 0.0
24/10:30am 28.4 27.1 16.7 49 7.4 ESE 19 26 10 14 1015.2 - 0.0
24/10:00am 28.0 27.4 16.6 50 7.1 E 15 22 8 12 1015.5 1014.6 0.0
24/09:30am 26.2 25.5 16.4 54 6.1 E 15 22 8 12 1015.6 - 0.0
24/09:00am 25.0 25.2 16.7 60 5.2 E 11 17 6 9 1015.5 1014.6 0.0
24/08:30am 23.1 23.5 16.4 66 4.1 ESE 9 13 5 7 1015.2 - 0.0
24/08:00am 21.8 22.5 16.1 70 3.5 E 7 9 4 5 1015.0 1014.0 0.0
24/07:30am 19.9 20.2 15.1 74 2.8 ESE 7 11 4 6 1014.7 - 0.0
24/07:00am 18.6 18.8 14.3 76 2.5 E 6 7 3 4 1014.2 1013.2 0.0
24/06:30am 18.7 19.0 14.6 77 2.4 ESE 6 7 3 4 1013.7 - 0.0
24/06:00am 19.1 19.7 15.2 78 2.3 ESE 6 7 3 4 1013.5 1012.5 0.0
24/05:30am 19.0 19.2 14.7 76 2.5 ESE 7 7 4 4 1013.3 - 0.0
24/05:00am 19.5 19.8 14.5 73 2.9 ESE 6 7 3 4 1013.3 1012.3 0.0
24/04:30am 19.9 20.2 14.5 71 3.2 SE 6 7 3 4 1013.3 - 0.0
24/04:00am 20.6 21.4 14.7 69 3.5 ENE 4 4 2 2 1013.0 1012.0 0.0
24/03:30am 21.2 21.8 15.3 69 3.5 ENE 6 7 3 4 1013.0 - 0.0
24/03:00am 21.4 22.0 15.3 68 3.7 E 6 7 3 4 1013.1 1012.1 0.0
24/02:30am 21.8 22.6 15.9 69 3.6 NE 6 7 3 4 1013.2 - 0.0
24/02:00am 21.9 23.2 16.2 70 3.5 ENE 4 4 2 2 1013.3 1012.3 0.0
24/01:30am 21.5 22.6 15.6 69 3.6 E 4 6 2 3 1013.6 - 0.0
24/01:00am 21.8 22.6 15.9 69 3.6 ENE 6 7 3 4 1014.1 1013.1 0.0
24/12:30am 22.4 23.4 16.4 69 3.7 NE 6 7 3 4 1014.3 - 0.0
24/12:00am 22.8 23.8 16.4 67 3.9 ENE 6 9 3 5 1014.5 1013.5 0.0
 
Date/Time
EST
Temp
°C
App
Temp
°C
Dew
Point
Rel
Hum
%
Delta-T
°C
Wind Press
QNH
hPa
Press
MSL
hPa
Rain
since 9 am
mm
Dir
 
Spd
km/h
Gust
km/h
Spd
kts
Gust
kts
23/11:30pm 23.7 24.0 17.0 66 4.2 NNE 11 17 6 9 1014.5 - 0.0
23/11:00pm 24.1 24.1 17.1 65 4.4 NNE 13 19 7 10 1014.7 1013.7 0.0
23/10:30pm 24.4 24.1 17.4 65 4.4 NNE 15 20 8 11 1014.9 - 0.0
23/10:00pm 24.6 23.9 17.3 64 4.6 N 17 24 9 13 1014.9 1013.9 0.0
23/09:30pm 25.1 23.2 17.6 63 4.7 N 24 32 13 17 1014.9 - 0.0
23/09:00pm 25.4 23.2 17.8 62 4.8 NNE 26 35 14 19 1015.0 1014.0 0.0
23/08:30pm 26.2 23.6 17.8 60 5.3 NNE 28 39 15 21 1014.4 - 0.0
23/08:00pm 28.2 24.5 15.1 44 8.0 N 28 41 15 22 1013.9 1012.9 0.0
23/07:30pm 29.4 29.1 12.8 36 9.9 E 6 7 3 4 1013.4 - 0.0
23/07:00pm 29.8 28.8 12.3 34 10.3 E 9 9 5 5 1012.8 1011.8 0.0
23/06:30pm 29.9 29.3 12.3 33 10.4 E 7 9 4 5 1012.7 - 0.0
23/06:00pm 30.5 29.3 12.9 34 10.5 ESE 11 17 6 9 1012.5 1011.5 0.0
23/05:30pm 31.2 30.7 12.5 31 11.1 E 7 11 4 6 1012.2 - 0.0
23/05:00pm 31.3 30.0 12.6 31 11.2 ESE 11 22 6 12 1011.9 1010.9 0.0
23/04:30pm 31.2 30.3 12.5 31 11.1 E 9 17 5 9 1011.8 - 0.0
23/04:00pm 31.8 30.3 13.1 32 11.3 SE 13 30 7 16 1011.8 1010.8 0.0
23/03:30pm 31.2 29.5 12.5 31 11.1 ESE 13 24 7 13 1011.9 - 0.0
23/03:00pm 32.7 31.8 13.8 31 11.6 ENE 11 20 6 11 1012.2 1011.2 0.0
23/02:30pm 32.0 30.7 13.7 33 11.1 E 13 28 7 15 1012.6 - 0.0
23/02:00pm 31.8 30.9 14.9 36 10.5 ESE 13 22 7 12 1012.7 1011.7 0.0
23/01:30pm 31.1 30.5 14.7 37 10.1 ESE 11 19 6 10 1013.3 - 0.0
23/01:00pm 30.8 30.0 15.2 38 9.7 E 13 28 7 15 1013.6 1012.6 0.0
23/12:30pm 30.0 28.7 15.7 42 8.9 ESE 17 28 9 15 1014.2 - 0.0
23/12:00pm 29.4 29.5 15.5 43 8.6 NE 9 19 5 10 1014.8 1013.8 0.0
23/11:30am 29.2 28.9 16.4 46 8.0 ENE 13 24 7 13 1015.3 - 0.0
23/11:00am 28.1 27.7 16.1 48 7.5 E 13 22 7 12 1016.1 1015.1 0.0
23/10:30am 27.4 27.0 16.1 50 7.0 E 13 20 7 11 1016.4 - 0.0
23/10:00am 26.4 26.5 16.6 55 6.1 E 11 19 6 10 1016.5 1015.5 0.0
23/09:30am 25.3 25.4 16.4 57 5.5 ENE 11 17 6 9 1016.5 - 0.0
23/09:00am 24.4 24.1 16.4 61 4.9 ENE 13 19 7 10 1016.3 1015.3 0.0
23/08:30am 23.4 23.7 16.9 67 4.0 E 11 13 6 7 1016.0 - 0.0
23/08:00am 22.7 23.2 16.5 68 3.8 ENE 9 11 5 6 1015.7 1014.8 0.0
23/07:30am 22.1 22.7 15.9 68 3.8 ENE 7 11 4 6 1015.4 - 0.0
23/07:00am 20.7 20.8 14.4 67 3.7 ENE 7 9 4 5 1015.1 1014.1 0.0
23/06:30am 20.8 21.0 14.2 66 3.9 ENE 6 7 3 4 1014.9 - 0.0
23/06:00am 20.9 20.9 14.1 65 4.0 E 7 7 4 4 1014.7 1013.7 0.0
23/05:30am 21.2 21.3 14.4 65 4.0 E 7 9 4 5 1014.8 - 0.0
23/05:00am 21.7 22.2 15.1 66 3.9 E 6 6 3 3 1014.8 1013.8 0.0
23/04:30am 21.8 22.3 14.9 65 4.1 E 6 7 3 4 1014.8 - 0.0
23/04:00am 22.2 22.7 15.1 64 4.2 ENE 6 7 3 4 1014.7 1013.7 0.0
23/03:30am 23.1 24.0 16.6 67 4.0 NNE 7 11 4 6 1014.6 - 0.0
23/03:00am 23.5 24.2 17.0 67 4.0 N 9 13 5 7 1014.6 1013.6 0.0
23/02:30am 23.8 24.0 16.8 65 4.3 N 11 15 6 8 1014.9 - 0.0
23/02:00am 23.9 24.1 16.7 64 4.5 NNE 11 15 6 8 1015.0 1014.0 0.0
23/01:30am 23.5 23.9 15.3 60 5.0 NNE 7 9 4 5 1015.1 - 0.0
23/01:00am 24.1 24.6 15.6 59 5.2 NNE 7 9 4 5 1015.2 1014.3 0.0
23/12:30am 24.6 24.8 15.8 58 5.4 NNE 9 13 5 7 1015.2 - 0.0
23/12:00am 25.0 24.9 15.0 53 6.0 NNE 9 13 5 7 1015.5 1014.6 0.0
 
Date/Time
EST
Temp
°C
App
Temp
°C
Dew
Point
Rel
Hum
%
Delta-T
°C
Wind Press
QNH
hPa
Press
MSL
hPa
Rain
since 9 am
mm
Dir
 
Spd
km/h
Gust
km/h
Spd
kts
Gust
kts
22/11:30pm 25.5 24.6 14.9 52 6.4 NE 13 19 7 10 1015.7 - 0.0
22/11:00pm 26.0 24.1 15.1 51 6.6 NNE 19 26 10 14 1015.5 1014.6 0.0
22/10:30pm 26.5 23.8 15.5 50 6.7 NNE 24 33 13 18 1015.3 - 0.0
22/10:00pm 27.8 26.7 14.4 43 8.1 NNE 13 22 7 12 1015.4 1014.5 0.0
22/09:30pm 27.9 25.8 9.7 32 10.2 E 11 15 6 8 1015.2 - 0.0
22/09:00pm 28.1 25.7 9.9 32 10.3 ESE 13 19 7 10 1014.8 1013.8 0.0
22/08:30pm 28.6 26.1 9.8 31 10.6 ESE 13 19 7 10 1014.7 - 0.0
22/08:00pm 29.0 27.0 10.2 31 10.7 ESE 11 15 6 8 1014.5 1013.5 0.0
22/07:30pm 29.3 27.1 9.4 29 11.2 SE 11 13 6 7 1014.1 - 0.0
22/07:00pm 29.8 27.7 9.9 29 11.3 SE 11 15 6 8 1013.8 1012.8 0.0
22/06:30pm 30.1 28.7 9.6 28 11.6 SE 7 9 4 5 1013.7 - 0.0
22/06:00pm 30.6 29.4 9.5 27 12.0 SE 6 11 3 6 1013.6 1012.6 0.0
22/05:30pm 31.1 29.6 9.3 26 12.3 ESE 7 11 4 6 1013.3 - 0.0
22/05:00pm 31.7 30.0 9.8 26 12.5 E 9 20 5 11 1013.0 1012.0 0.0
22/04:30pm 32.3 31.0 9.8 25 12.9 SE 7 13 4 7 1012.9 - 0.0
22/04:00pm 32.1 29.4 9.0 24 13.1 SSE 13 28 7 15 1012.8 1011.8 0.0
22/03:30pm 31.8 30.0 9.3 25 12.8 SE 9 20 5 11 1013.1 - 0.0
22/03:00pm 31.5 30.1 9.7 26 12.5 SE 7 15 4 8 1013.3 1012.3 0.0
22/02:30pm 31.6 30.3 9.8 26 12.5 E 7 17 4 9 1013.5 - 0.0
22/02:00pm 31.4 30.4 10.2 27 12.2 SSE 6 9 3 5 1014.0 1013.0 0.0
22/01:30pm 31.1 29.9 10.4 28 11.9 ESE 7 15 4 8 1014.4 - 0.0
22/01:00pm 31.1 30.8 11.5 30 11.5 NE 4 7 2 4 1015.0 1014.0 0.0
22/12:30pm 30.1 28.6 10.6 30 11.2 ESE 9 19 5 10 1015.5 - 0.0
22/12:00pm 30.6 28.5 12.5 33 10.7 ENE 15 22 8 12 1016.2 1015.2 0.0
22/11:30am 29.7 27.2 13.5 37 9.7 NE 19 28 10 15 1016.9 - 0.0
22/11:00am 29.1 26.9 14.5 41 8.9 ENE 19 26 10 14 1017.3 1016.3 0.0
22/10:30am 29.0 27.3 16.2 46 8.0 NE 20 30 11 16 1017.7 - 0.0
22/10:00am 27.1 25.1 15.5 49 7.1 ENE 20 28 11 15 1018.0 1017.0 0.0
22/09:30am 26.2 24.0 15.9 53 6.3 NE 22 30 12 16 1018.0 - 0.0
22/09:00am 25.1 22.4 15.7 56 5.7 NE 24 33 13 18 1017.9 1016.9 0.0
22/08:30am 24.1 21.4 15.6 59 5.2 ENE 24 32 13 17 1017.7 - 0.0
22/08:00am 22.3 19.5 14.4 61 4.7 ENE 22 30 12 16 1017.6 1016.6 0.0
22/07:30am 21.2 18.5 13.4 61 4.5 ENE 20 26 11 14 1017.2 - 0.0
22/07:00am 19.5 17.1 11.5 60 4.4 NE 15 20 8 11 1016.7 1015.7 0.0
22/06:30am 19.2 16.2 10.5 57 4.7 NE 17 20 9 11 1016.5 - 0.0
22/06:00am 19.1 16.1 9.3 53 5.2 NE 15 19 8 10 1016.3 1015.3 0.0
22/05:30am 19.4 16.2 8.4 49 5.8 ENE 15 19 8 10 1016.1 - 0.0
22/05:00am 17.9 15.3 7.6 51 5.3 ENE 11 15 6 8 1015.8 1014.9 0.0
22/04:30am 16.7 13.9 5.3 47 5.5 E 9 11 5 6 1015.5 - 0.0
22/04:00am 17.5 14.4 5.4 45 5.9 ESE 11 13 6 7 1015.6 1014.7 0.0
22/03:30am 17.9 15.2 5.5 44 6.1 E 9 11 5 6 1015.6 - 0.0
22/03:00am 18.8 16.5 5.6 42 6.5 E 7 9 4 5 1015.6 1014.7 0.0
22/02:30am 19.6 16.9 5.6 40 7.0 ESE 9 13 5 7 1015.8 - 0.0
22/02:00am 20.4 17.3 5.6 38 7.4 E 11 13 6 7 1016.0 1015.0 0.0
22/01:30am 22.4 19.1 6.2 35 8.3 E 13 15 7 8 1016.2 - 0.0
22/01:00am 23.3 20.0 6.6 34 8.7 E 13 19 7 10 1016.1 1015.1 0.0
22/12:30am 24.1 20.5 6.8 33 9.0 E 15 20 8 11 1016.0 - 0.0
22/12:00am 23.5 19.9 6.7 34 8.7 ENE 15 19 8 10 1016.1 1015.1 0.0
 
Date/Time
EST
Temp
°C
App
Temp
°C
Dew
Point
Rel
Hum
%
Delta-T
°C
Wind Press
QNH
hPa
Press
MSL
hPa
Rain
since 9 am
mm
Dir
 
Spd
km/h
Gust
km/h
Spd
kts
Gust
kts
21/11:30pm 24.1 20.5 6.8 33 9.0 E 15 20 8 11 1016.1 - 0.0
21/11:00pm 25.1 21.2 7.3 32 9.4 E 17 22 9 12 1016.2 1015.2 0.0
21/10:30pm 24.6 21.1 7.3 33 9.2 ENE 15 20 8 11 1016.3 - 0.0
21/10:00pm 24.7 21.0 6.4 31 9.5 ENE 15 19 8 10 1016.4 1015.4 0.0
21/09:30pm 25.9 21.3 6.5 29 10.2 ENE 20 28 11 15 1016.2 - 0.0
21/09:00pm 26.1 21.6 6.2 28 10.4 ENE 19 26 10 14 1016.2 1015.2 0.0
21/08:30pm 26.1 22.4 6.2 28 10.4 ENE 15 19 8 10 1016.0 - 0.0
21/08:00pm 26.5 23.1 6.0 27 10.7 ENE 13 17 7 9 1015.5 1014.6 0.0
21/07:30pm 27.6 24.3 6.4 26 11.2 ENE 13 17 7 9 1015.2 - 0.0
21/07:00pm 28.8 24.8 6.8 25 11.8 ENE 17 20 9 11 1015.0 1014.0 0.0
21/06:30pm 30.0 25.7 7.2 24 12.4 ENE 19 28 10 15 1014.6 - 0.0
21/06:00pm 30.8 26.9 7.3 23 12.9 E 17 28 9 15 1014.1 1013.1 0.0
21/05:30pm 31.9 28.5 7.5 22 13.5 E 15 24 8 13 1013.9 - 0.0
21/05:00pm 32.3 27.6 7.9 22 13.6 E 22 30 12 16 1013.6 1012.6 0.0
21/04:30pm 32.8 28.4 7.6 21 14.0 E 20 59 11 32 1013.5 - 0.0
21/04:00pm 33.1 28.6 7.1 20 14.4 E 20 33 11 18 1013.5 1012.5 0.0

Other Formats:

Comma delimited format used in spreadsheet applications
http://www.bom.gov.au/fwo/IDQ60801/IDQ60801.94342.axf

JavaScript Object Notation format (JSON) in row-major order
http://www.bom.gov.au/fwo/IDQ60801/IDQ60801.94342.json